Time;durP1;ratioP1;P1;durP2;ratioP2;P2;SDS_P1;SDS_P2;PMS_P1;PMS_P2;Temp;Humidity;BMP_temperature;BMP_pressure;BME280_temperature;BME280_humidity;BME280_pressure;Samples;Min_cycle;Max_cycle;Signal;HPM_P1;HPM_P2
2022/11/12 00:02:06;;;;;;;;;15.50;15.25;;;;;9.14;76.26;103110.44;5037068;28;11758;-68
2022/11/12 00:04:51;;;;;;;;;22.75;21.50;;;;;9.13;76.57;103111.44;5016186;28;10694;-68
2022/11/12 00:07:36;;;;;;;;;16.00;16.00;;;;;9.09;75.97;103102.78;5031574;28;10707;-68
2022/11/12 00:10:21;;;;;;;;;14.00;14.00;;;;;9.10;76.48;103112.53;5033004;28;10987;-68
2022/11/12 00:13:06;;;;;;;;;13.75;13.75;;;;;9.10;75.93;103106.31;5041477;28;10529;-67
2022/11/12 00:15:52;;;;;;;;;19.75;17.50;;;;;9.11;76.21;103108.00;5040693;28;10614;-68
2022/11/12 00:18:36;;;;;;;;;19.00;18.75;;;;;9.08;75.86;103110.97;5053115;28;10495;-68
2022/11/12 00:21:21;;;;;;;;;13.50;13.25;;;;;9.10;75.92;103111.69;5042694;28;10758;-67
2022/11/12 00:24:06;;;;;;;;;21.00;15.50;;;;;9.07;76.18;103107.41;5032837;28;10593;-68
2022/11/12 00:26:51;;;;;;;;;12.00;11.25;;;;;9.08;75.91;103103.75;5022414;28;10704;-67
2022/11/12 00:29:37;;;;;;;;;16.50;15.00;;;;;9.10;76.57;103103.63;5039803;28;11327;-67
2022/11/12 00:32:22;;;;;;;;;14.25;14.25;;;;;9.11;76.20;103105.31;5040944;28;10513;-68
2022/11/12 00:35:07;;;;;;;;;17.50;16.00;;;;;9.10;76.14;103091.03;5052827;28;10680;-68
2022/11/12 00:37:58;;;;;;;;;21.00;17.75;;;;;9.08;76.35;103106.44;5041597;28;10621;-67
2022/11/12 00:40:43;;;;;;;;;20.75;19.25;;;;;9.09;76.48;103116.22;5027299;28;10515;-68
2022/11/12 00:43:28;;;;;;;;;19.00;16.25;;;;;9.08;76.20;103113.66;5036270;28;10932;-65
2022/11/12 00:46:13;;;;;;;;;19.50;16.25;;;;;9.08;75.96;103108.28;5040800;28;10758;-67
2022/11/12 00:48:57;;;;;;;;;17.50;14.50;;;;;9.09;76.39;103108.16;5012864;28;10746;-67
2022/11/12 00:51:43;;;;;;;;;18.25;17.00;;;;;9.13;76.64;103111.44;5012911;28;10541;-68
2022/11/12 00:54:28;;;;;;;;;17.75;14.00;;;;;9.17;76.29;103110.19;5013885;28;10716;-68
2022/11/12 00:57:14;;;;;;;;;19.00;18.50;;;;;9.16;77.27;103113.88;5030918;28;10693;-67
2022/11/12 00:59:59;;;;;;;;;18.00;15.00;;;;;9.18;77.04;103114.56;5040296;28;10846;-68
2022/11/12 01:02:44;;;;;;;;;23.25;19.50;;;;;9.19;77.37;103120.78;5030980;28;10694;-67
2022/11/12 01:05:34;;;;;;;;;19.25;17.50;;;;;9.21;77.51;103108.94;5039330;28;10641;-68
2022/11/12 01:08:19;;;;;;;;;20.00;20.00;;;;;9.27;77.92;103103.03;5039597;28;10529;-68
2022/11/12 01:11:10;;;;;;;;;24.50;22.75;;;;;9.28;77.66;103094.03;5031811;28;11400;-68
2022/11/12 01:14:04;;;;;;;;;24.25;22.50;;;;;9.29;78.25;103095.72;5025330;28;10971;-67
2022/11/12 01:16:49;;;;;;;;;19.75;18.75;;;;;9.34;78.28;103103.38;5033640;28;10839;-68
2022/11/12 01:19:34;;;;;;;;;19.25;17.75;;;;;9.34;78.81;103109.59;5031589;28;10608;-68
2022/11/12 01:22:19;;;;;;;;;25.25;18.25;;;;;9.37;78.35;103103.97;5030381;28;11354;-68
2022/11/12 01:25:04;;;;;;;;;18.25;18.25;;;;;9.36;77.95;103096.91;5039668;28;11347;-68
2022/11/12 01:27:49;;;;;;;;;25.75;21.00;;;;;9.38;78.55;103092.22;5034258;28;10779;-68
2022/11/12 01:30:34;;;;;;;;;33.25;32.25;;;;;9.36;78.77;103090.69;5036969;28;10745;-68
2022/11/12 01:33:19;;;;;;;;;34.00;25.50;;;;;9.35;78.27;103099.69;5042760;28;10929;-68
2022/11/12 01:36:05;;;;;;;;;28.50;26.75;;;;;9.33;78.64;103102.53;5031852;28;11537;-68
2022/11/12 01:38:51;;;;;;;;;24.50;21.50;;;;;9.34;79.19;103104.22;5011853;28;10864;-67
2022/11/12 01:41:38;;;;;;;;;35.00;31.00;;;;;9.34;78.76;103111.44;5019630;28;11000;-66
2022/11/12 01:44:28;;;;;;;;;29.50;22.50;;;;;9.32;79.11;103111.59;5033172;28;11136;-68
2022/11/12 01:47:31;;;;;;;;;29.00;27.00;;;;;9.34;79.03;103117.66;5032516;28;10773;-65
2022/11/12 01:50:31;;;;;;;;;32.25;22.50;;;;;9.36;79.32;103142.59;5031430;28;11678;-68
2022/11/12 01:53:18;;;;;;;;;36.50;32.50;;;;;9.31;79.16;103126.00;5036251;28;10856;-68
2022/11/12 01:56:05;;;;;;;;;33.25;31.00;;;;;9.31;79.20;103133.19;5046470;28;11018;-68
2022/11/12 01:58:57;;;;;;;;;27.25;26.25;;;;;9.30;79.43;103118.91;5026500;28;11795;-68
2022/11/12 02:01:43;;;;;;;;;30.25;28.50;;;;;9.30;79.53;103118.91;5033333;28;10967;-68
2022/11/12 02:04:28;;;;;;;;;45.50;38.25;;;;;9.24;79.35;103115.91;5011433;28;11797;-68
2022/11/12 02:07:15;;;;;;;;;32.75;32.25;;;;;9.20;79.78;103123.38;5023138;28;11108;-68
2022/11/12 02:10:01;;;;;;;;;35.75;30.00;;;;;9.23;80.09;103115.03;5036296;28;11178;-68
2022/11/12 02:15:54;;;;;;;;;30.00;28.50;;;;;9.28;80.68;103117.34;5039059;28;11613;-68
2022/11/12 02:18:38;;;;;;;;;30.25;25.50;;;;;9.32;79.97;103106.22;5029618;28;11021;-68
2022/11/12 02:21:26;;;;;;;;;35.25;29.75;;;;;9.36;79.78;103112.19;5042399;28;10834;-68
2022/11/12 02:24:11;;;;;;;;;29.00;27.50;;;;;9.37;79.99;103112.03;5033882;28;11023;-68
2022/11/12 02:26:56;;;;;;;;;39.25;32.00;;;;;9.36;80.00;103099.59;5015364;28;11008;-68
2022/11/12 02:29:45;;;;;;;;;27.00;26.00;;;;;9.36;79.98;103106.81;5027546;28;10892;-68
2022/11/12 02:32:30;;;;;;;;;37.25;31.00;;;;;9.36;80.06;103104.97;5038741;28;10840;-68
2022/11/12 02:35:15;;;;;;;;;32.50;29.50;;;;;9.36;80.22;103107.66;5018392;28;11056;-67
2022/11/12 02:38:00;;;;;;;;;37.00;31.25;;;;;9.34;80.03;103109.59;5011410;28;10839;-68
2022/11/12 02:40:44;;;;;;;;;41.25;36.25;;;;;9.30;79.54;103097.41;5030775;28;11128;-67
2022/11/12 02:43:29;;;;;;;;;38.75;35.00;;;;;9.27;80.28;103110.25;5015734;28;11210;-68
2022/11/12 02:46:14;;;;;;;;;43.00;36.00;;;;;9.22;80.23;103091.84;5020261;28;11243;-68
2022/11/12 02:48:59;;;;;;;;;39.50;32.25;;;;;9.22;80.27;103091.00;5036073;28;11088;-68
2022/11/12 02:51:44;;;;;;;;;37.50;34.50;;;;;9.20;80.44;103088.44;5024441;28;10985;-68
2022/11/12 02:54:29;;;;;;;;;48.00;38.00;;;;;9.15;80.11;103080.78;5030322;28;11279;-67
2022/11/12 02:57:14;;;;;;;;;36.00;31.25;;;;;9.18;80.83;103085.03;5027997;28;11270;-68
2022/11/12 02:59:58;;;;;;;;;39.25;34.50;;;;;9.15;80.79;103072.72;5010553;28;10964;-68
2022/11/12 03:02:57;;;;;;;;;38.75;31.75;;;;;9.18;80.71;103066.22;5010614;28;11586;-67
2022/11/12 03:05:43;;;;;;;;;30.25;27.25;;;;;9.22;80.79;103064.97;5014506;28;11023;-68
2022/11/12 03:08:29;;;;;;;;;43.00;33.25;;;;;9.24;80.86;103068.38;5040493;28;10948;-68
2022/11/12 03:11:16;;;;;;;;;35.00;31.25;;;;;9.27;80.98;103070.78;5027866;28;11178;-68
2022/11/12 03:14:01;;;;;;;;;54.00;43.25;;;;;9.22;80.42;103067.66;5039632;28;11133;-68
2022/11/12 03:16:46;;;;;;;;;42.25;38.00;;;;;9.21;80.87;103065.94;5043372;28;11440;-68
2022/11/12 03:19:31;;;;;;;;;33.50;29.50;;;;;9.24;80.40;103062.16;5032615;28;11472;-67
2022/11/12 03:22:16;;;;;;;;;46.75;41.00;;;;;9.23;80.70;103072.03;5041984;28;11110;-68
2022/11/12 03:25:01;;;;;;;;;49.75;35.50;;;;;9.21;81.01;103073.16;5028014;28;11445;-68
2022/11/12 03:27:46;;;;;;;;;54.25;43.25;;;;;9.19;80.64;103073.28;5034583;28;11395;-68
2022/11/12 03:30:34;;;;;;;;;49.50;38.50;;;;;9.15;80.82;103094.22;5031211;28;12251;-68
2022/11/12 03:33:19;;;;;;;;;45.25;40.25;;;;;9.11;80.56;103082.00;5043156;28;12040;-67
2022/11/12 03:36:04;;;;;;;;;62.50;47.25;;;;;9.07;80.86;103085.91;5043120;28;11164;-68
2022/11/12 03:38:49;;;;;;;;;54.25;45.25;;;;;9.04;81.25;103093.41;5032925;28;11540;-68
2022/11/12 03:41:34;;;;;;;;;43.75;38.50;;;;;9.02;81.31;103101.56;5032071;28;11731;-68
2022/11/12 03:44:19;;;;;;;;;43.75;41.00;;;;;9.03;81.24;103105.97;5042007;28;11175;-68
2022/11/12 03:47:04;;;;;;;;;44.25;41.00;;;;;9.06;81.12;103102.19;5014124;28;11483;-68
2022/11/12 03:49:49;;;;;;;;;46.00;39.50;;;;;9.08;81.10;103086.78;5039635;28;11700;-67
2022/11/12 03:52:33;;;;;;;;;51.50;40.00;;;;;9.08;81.70;103090.31;5031731;28;11443;-68
2022/11/12 03:55:20;;;;;;;;;43.50;39.75;;;;;9.10;81.74;103100.94;5034219;28;11271;-68
2022/11/12 03:58:05;;;;;;;;;50.50;42.75;;;;;9.10;81.17;103100.94;5033639;28;11259;-68
2022/11/12 04:00:50;;;;;;;;;52.00;42.25;;;;;9.11;81.39;103092.72;5033629;28;11546;-68
2022/11/12 04:03:36;;;;;;;;;58.00;49.25;;;;;9.10;81.12;103098.25;5040372;28;11416;-68
2022/11/12 04:09:24;;;;;;;;;65.75;49.00;;;;;9.02;81.17;103088.16;5041637;28;12171;-68
2022/11/12 04:15:17;;;;;;;;;65.00;48.75;;;;;9.03;81.29;103091.69;5012437;28;12168;-66
2022/11/12 04:21:53;;;;;;;;;61.00;47.00;;;;;9.09;81.46;103091.19;5013375;28;12159;-66
2022/11/12 04:26:21;;;;;;;;;58.25;43.50;;;;;9.06;82.00;103092.28;5033835;28;11491;-66
2022/11/12 04:27:20;;;;;;;;;62.50;48.25;;;;;8.99;81.70;103092.91;5031047;28;11415;-67
2022/11/12 04:30:15;;;;;;;;;43.00;38.50;;;;;9.02;82.25;103098.88;5031791;28;11417;-66
2022/11/12 04:33:00;;;;;;;;;63.50;45.00;;;;;9.05;81.78;103104.00;5040027;28;11440;-67
2022/11/12 04:35:45;;;;;;;;;49.00;44.00;;;;;9.05;81.32;103106.69;5013082;28;11455;-67
2022/11/12 04:38:29;;;;;;;;;49.75;41.25;;;;;9.09;82.14;103110.84;5016306;28;11468;-65
2022/11/12 04:47:22;;;;;;;;;50.00;42.00;;;;;9.19;81.70;103078.66;5044245;28;11123;-67
2022/11/12 04:50:14;;;;;;;;;61.75;43.25;;;;;9.20;81.14;103080.38;5035866;28;11237;-68
2022/11/12 04:52:59;;;;;;;;;41.25;37.75;;;;;9.18;81.52;103074.28;5036164;28;11436;-67
2022/11/12 04:55:44;;;;;;;;;45.75;41.75;;;;;9.14;81.29;103073.69;5038022;28;11427;-66
2022/11/12 04:58:28;;;;;;;;;43.50;35.75;;;;;9.09;81.32;103073.22;5039897;28;11491;-68
2022/11/12 05:01:14;;;;;;;;;40.25;32.75;;;;;9.10;82.02;103084.81;5039285;28;11267;-66
2022/11/12 05:03:59;;;;;;;;;33.00;33.00;;;;;9.14;81.84;103083.56;5041414;28;11858;-66
2022/11/12 05:06:50;;;;;;;;;34.00;27.25;;;;;9.17;81.84;103077.94;5052664;28;11066;-66
2022/11/12 05:09:36;;;;;;;;;30.75;30.25;;;;;9.14;81.68;103070.13;5050342;28;10945;-66
2022/11/12 05:12:21;;;;;;;;;36.75;34.00;;;;;9.18;82.01;103076.09;5032913;28;11005;-67
2022/11/12 05:15:07;;;;;;;;;46.00;37.50;;;;;9.14;82.00;103070.13;5046528;28;10765;-66
2022/11/12 05:17:52;;;;;;;;;42.75;37.00;;;;;9.08;81.74;103059.94;5036480;28;10952;-66
2022/11/12 05:20:37;;;;;;;;;45.00;38.00;;;;;9.03;81.99;103059.44;5032964;28;11103;-67
2022/11/12 05:23:22;;;;;;;;;38.25;33.50;;;;;9.04;82.77;103047.72;5043582;28;11182;-66
2022/11/12 05:26:07;;;;;;;;;41.25;34.00;;;;;9.03;82.50;103046.84;5038549;28;11781;-66
2022/11/12 05:28:52;;;;;;;;;40.75;35.25;;;;;9.03;82.39;103051.38;5029622;28;11092;-68
2022/11/12 05:31:37;;;;;;;;;39.25;36.25;;;;;8.97;82.60;103049.22;5034561;28;11018;-66
2022/11/12 05:34:22;;;;;;;;;39.50;34.50;;;;;8.95;82.21;103043.97;5043493;28;11170;-66
2022/11/12 05:37:09;;;;;;;;;43.25;35.00;;;;;8.97;82.30;103046.53;5036186;28;10962;-67
2022/11/12 05:39:54;;;;;;;;;36.25;32.75;;;;;8.99;82.84;103050.78;5040915;28;11098;-67
2022/11/12 05:42:38;;;;;;;;;37.75;34.00;;;;;9.03;82.91;103054.91;5040542;28;11138;-67
2022/11/12 05:45:23;;;;;;;;;45.25;40.25;;;;;8.95;82.74;103059.22;5011959;28;11950;-68
2022/11/12 05:48:09;;;;;;;;;46.50;39.50;;;;;8.88;82.63;103053.56;5023033;28;11427;-67
2022/11/12 05:50:55;;;;;;;;;41.25;35.50;;;;;8.91;82.37;103054.16;5035518;28;11253;-67
2022/11/12 05:53:56;;;;;;;;;46.75;37.75;;;;;8.88;82.91;103051.72;5027233;28;11250;-67
2022/11/12 05:56:42;;;;;;;;;35.25;32.25;;;;;8.98;82.70;103048.25;5025041;28;12085;-68
2022/11/12 05:59:27;;;;;;;;;28.25;28.25;;;;;9.04;82.95;103048.59;5018715;28;11007;-67
2022/11/12 06:02:12;;;;;;;;;40.75;31.50;;;;;9.08;83.09;103047.34;5035990;28;10997;-67
2022/11/12 06:04:57;;;;;;;;;41.50;33.25;;;;;9.11;82.90;103046.22;5031010;28;11099;-67
2022/11/12 06:07:42;;;;;;;;;51.25;41.50;;;;;9.13;82.88;103044.25;5032448;28;11270;-68
2022/11/12 06:10:26;;;;;;;;;39.00;31.50;;;;;9.16;82.46;103044.84;5037466;28;11447;-67
2022/11/12 06:13:11;;;;;;;;;39.00;35.00;;;;;9.17;82.65;103048.38;5034935;28;11238;-65
2022/11/12 06:15:56;;;;;;;;;31.25;30.50;;;;;9.19;82.95;103046.41;5026030;28;11749;-65
2022/11/12 06:18:41;;;;;;;;;36.50;34.50;;;;;9.21;82.64;103041.78;5035172;28;11100;-66
2022/11/12 06:21:27;;;;;;;;;41.75;37.25;;;;;9.22;82.85;103048.84;5036732;28;10959;-67
2022/11/12 06:24:13;;;;;;;;;47.50;39.00;;;;;9.22;82.25;103043.47;5037498;28;11180;-67
2022/11/12 06:26:57;;;;;;;;;40.00;34.50;;;;;9.24;82.55;103052.25;5015664;28;11090;-66
2022/11/12 06:29:42;;;;;;;;;45.25;39.50;;;;;9.26;82.29;103057.50;5027332;28;11026;-69
2022/11/12 06:32:27;;;;;;;;;49.00;43.00;;;;;9.24;82.14;103068.38;5034817;28;11448;-67
2022/11/12 06:35:12;;;;;;;;;39.50;36.25;;;;;9.19;81.96;103069.75;5037669;28;11431;-67
2022/11/12 06:37:57;;;;;;;;;51.50;42.75;;;;;9.10;81.90;103068.69;5038039;28;11414;-67
2022/11/12 06:40:42;;;;;;;;;56.75;44.50;;;;;9.05;81.72;103074.47;5028282;28;11454;-67
2022/11/12 06:43:29;;;;;;;;;55.25;42.25;;;;;9.04;82.35;103078.13;5026216;28;11463;-68
2022/11/12 06:46:16;;;;;;;;;44.75;39.25;;;;;9.05;82.12;103081.66;5030537;28;11439;-66
2022/11/12 06:49:01;;;;;;;;;35.00;30.50;;;;;9.01;82.15;103077.53;5030506;28;11436;-66
2022/11/12 06:51:49;;;;;;;;;46.25;40.75;;;;;9.01;82.69;103089.13;5032684;28;11452;-67
2022/11/12 06:54:34;;;;;;;;;42.00;35.00;;;;;9.00;82.30;103092.81;5041450;28;11414;-68
2022/11/12 06:57:19;;;;;;;;;35.00;34.50;;;;;9.02;82.04;103098.03;5028441;28;11569;-66
2022/11/12 07:00:04;;;;;;;;;45.25;39.00;;;;;9.02;81.89;103093.50;5038791;28;11629;-66
2022/11/12 07:02:49;;;;;;;;;39.75;38.75;;;;;9.02;82.07;103096.19;5028769;28;11489;-67
2022/11/12 07:05:37;;;;;;;;;40.25;39.00;;;;;9.01;81.97;103101.72;5041081;28;11565;-67
2022/11/12 07:08:21;;;;;;;;;45.50;41.50;;;;;8.98;81.69;103107.34;5050421;28;11422;-66
2022/11/12 07:11:07;;;;;;;;;50.75;42.00;;;;;8.89;82.05;103099.06;5038655;28;11420;-68
2022/11/12 07:13:52;;;;;;;;;53.75;42.50;;;;;8.91;82.06;103099.81;5037297;28;11424;-65
2022/11/12 07:16:37;;;;;;;;;45.50;39.00;;;;;8.91;82.32;103107.00;5023696;28;11449;-66
2022/11/12 07:19:22;;;;;;;;;40.50;37.25;;;;;8.91;82.66;103115.94;5029806;28;11422;-67
2022/11/12 07:22:06;;;;;;;;;41.75;38.25;;;;;8.89;82.40;103117.88;5013631;28;11428;-67
2022/11/12 07:24:51;;;;;;;;;46.25;41.00;;;;;8.86;81.91;103110.06;5016351;28;11546;-67
2022/11/12 07:27:36;;;;;;;;;42.00;34.25;;;;;8.91;81.74;103113.25;5027813;28;11540;-67
2022/11/12 07:30:21;;;;;;;;;33.25;31.50;;;;;8.94;81.75;103117.47;5031284;28;11156;-66
2022/11/12 07:33:06;;;;;;;;;39.50;33.75;;;;;8.95;81.82;103119.19;5036773;28;11265;-68
2022/11/12 07:36:06;;;;;;;;;42.50;38.00;;;;;8.92;81.36;103124.81;5027747;28;11425;-67
2022/11/12 07:38:53;;;;;;;;;45.50;40.00;;;;;8.92;81.93;103124.81;5022948;28;11419;-67
2022/11/12 07:41:38;;;;;;;;;40.50;38.50;;;;;8.91;81.42;103110.56;5023295;28;12268;-66
2022/11/12 07:44:23;;;;;;;;;41.25;39.00;;;;;9.00;81.85;103110.75;5037729;28;11453;-67
2022/11/12 07:47:08;;;;;;;;;35.25;32.50;;;;;9.07;81.80;103123.53;5029657;28;11414;-66
2022/11/12 07:49:53;;;;;;;;;43.25;38.50;;;;;9.10;81.38;103138.56;5029074;28;11529;-67
2022/11/12 07:52:38;;;;;;;;;49.75;39.25;;;;;9.10;80.81;103128.66;5043294;28;11433;-67
2022/11/12 07:55:23;;;;;;;;;47.50;40.25;;;;;9.06;80.61;103129.03;5039594;28;11482;-66
2022/11/12 07:58:08;;;;;;;;;40.25;38.25;;;;;9.04;80.64;103126.50;5037152;28;11419;-66
2022/11/12 08:00:53;;;;;;;;;43.75;40.50;;;;;8.96;80.43;103128.13;5034043;28;11550;-66
2022/11/12 08:03:38;;;;;;;;;47.75;41.25;;;;;8.92;80.62;103132.88;5041893;28;11455;-65
2022/11/12 08:06:24;;;;;;;;;48.75;42.25;;;;;8.93;80.12;103131.06;5040532;28;11490;-67
2022/11/12 08:09:09;;;;;;;;;38.25;37.00;;;;;8.94;80.39;103135.44;5047308;28;11739;-66
2022/11/12 08:11:55;;;;;;;;;36.25;35.50;;;;;8.94;80.58;103127.38;5033385;28;11570;-67
2022/11/12 08:14:39;;;;;;;;;40.50;37.75;;;;;8.94;80.43;103128.22;5013578;28;11526;-66
2022/11/12 08:17:24;;;;;;;;;45.75;39.00;;;;;8.94;80.76;103122.84;5013395;28;11557;-67
2022/11/12 08:20:09;;;;;;;;;48.00;43.00;;;;;8.94;79.92;103119.31;5026405;28;11413;-67
2022/11/12 08:22:58;;;;;;;;;50.50;40.50;;;;;8.93;80.40;103123.00;5026210;28;11433;-67
2022/11/12 08:25:43;;;;;;;;;38.50;33.00;;;;;8.97;80.47;103127.97;5040852;28;11453;-67
2022/11/12 08:28:29;;;;;;;;;16.25;9.50;;;;;9.04;79.92;103129.19;5028110;28;11538;-67
2022/11/12 08:31:18;;;;;;;;;44.25;38.75;;;;;9.05;80.33;103132.72;5044082;28;11381;-67
2022/11/12 08:34:10;;;;;;;;;45.25;38.50;;;;;9.07;79.28;103136.13;5020269;28;11460;-67
2022/11/12 08:36:56;;;;;;;;;45.00;39.25;;;;;8.99;79.35;103134.06;5034705;28;11559;-67
2022/11/12 08:39:47;;;;;;;;;48.00;34.25;;;;;9.04;79.90;103134.56;5035236;28;11437;-72
2022/11/12 08:43:38;;;;;;;;;46.50;40.25;;;;;9.01;78.97;103133.94;5034279;28;11446;-72
2022/11/12 08:47:02;;;;;;;;;39.50;35.00;;;;;9.08;78.92;103130.63;4934827;29;11539;-72
2022/11/12 08:54:12;;;;;;;;;37.25;35.00;;;;;9.24;78.77;103124.81;4933727;28;11555;-70
2022/11/12 08:57:30;;;;;;;;;43.75;39.50;;;;;9.32;78.89;103138.47;4957815;28;11444;-66
2022/11/12 09:00:16;;;;;;;;;43.50;39.25;;;;;9.34;78.55;103131.09;5006040;28;11535;-67
2022/11/12 09:03:02;;;;;;;;;47.25;39.00;;;;;9.40;78.18;103140.50;4987200;28;11471;-67
2022/11/12 09:05:50;;;;;;;;;33.50;33.50;;;;;9.47;78.04;103127.38;4996030;28;11431;-67
2022/11/12 09:08:35;;;;;;;;;32.50;31.00;;;;;9.57;77.43;103133.69;5002970;28;11414;-66
2022/11/12 09:11:20;;;;;;;;;34.25;32.00;;;;;9.61;77.25;103127.06;4989207;28;11036;-67
2022/11/12 09:14:05;;;;;;;;;36.50;34.75;;;;;9.69;77.43;103135.31;4987691;28;11117;-67
2022/11/12 09:16:50;;;;;;;;;35.00;33.75;;;;;9.76;76.35;103135.63;5007827;28;12004;-66
2022/11/12 09:19:35;;;;;;;;;31.75;29.50;;;;;9.76;76.38;103124.88;5031657;28;11096;-66
2022/11/12 09:22:27;;;;;;;;;38.25;35.00;;;;;9.79;76.23;103125.47;5030503;28;11159;-67
2022/11/12 09:25:12;;;;;;;;;34.75;31.50;;;;;9.84;75.95;103143.88;5030957;28;11269;-67
2022/11/12 09:27:57;;;;;;;;;41.00;40.00;;;;;9.80;75.61;103135.25;5042957;28;11676;-67
2022/11/12 09:30:45;;;;;;;;;37.50;34.50;;;;;9.83;76.10;103131.44;5040889;28;11083;-66
2022/11/12 09:33:31;;;;;;;;;48.50;37.25;;;;;9.89;75.57;103130.91;5029874;28;10858;-68
2022/11/12 09:36:16;;;;;;;;;36.50;36.25;;;;;9.93;75.11;103142.25;5029070;28;11878;-66
2022/11/12 09:39:01;;;;;;;;;38.50;37.00;;;;;9.94;75.60;103136.72;5011802;28;11090;-69
2022/11/12 09:41:46;;;;;;;;;35.50;31.75;;;;;9.91;75.33;103135.16;5036816;28;11181;-67
2022/11/12 09:44:36;;;;;;;;;36.00;34.50;;;;;9.96;75.29;103148.19;5027612;28;11231;-67
2022/11/12 09:47:33;;;;;;;;;37.25;32.00;;;;;10.02;75.52;103142.28;5021899;28;11263;-67
2022/11/12 09:50:35;;;;;;;;;51.00;44.50;;;;;10.04;75.11;103140.31;5039231;28;11135;-67
2022/11/12 09:53:45;;;;;;;;;36.75;30.75;;;;;10.11;75.21;103133.41;5036026;28;11435;-68
2022/11/12 09:56:30;;;;;;;;;33.00;32.00;;;;;10.20;74.92;103131.75;5032104;28;10993;-67
2022/11/12 09:59:16;;;;;;;;;35.50;30.50;;;;;10.30;75.01;103131.81;5047498;28;10782;-66
2022/11/12 10:02:33;;;;;;;;;41.25;37.50;;;;;10.31;74.29;103136.22;5039533;28;10861;-67
2022/11/12 10:05:24;;;;;;;;;40.00;35.50;;;;;10.29;74.49;103133.66;5023300;28;11028;-66
2022/11/12 10:08:40;;;;;;;;;28.00;26.50;;;;;10.37;74.60;103136.53;5006536;28;11153;-66
2022/11/12 10:11:28;;;;;;;;;33.75;30.50;;;;;10.39;74.25;103139.94;5018664;28;10865;-67
2022/11/12 10:14:51;;;;;;;;;39.50;34.75;;;;;10.43;74.09;103135.13;5018888;28;10807;-67
2022/11/12 10:17:44;;;;;;;;;29.00;25.25;;;;;10.48;73.92;103129.31;5019321;28;11026;-68
2022/11/12 10:20:41;;;;;;;;;33.25;32.00;;;;;10.51;73.47;103131.75;5023305;28;10927;-67
2022/11/12 10:23:35;;;;;;;;;33.50;31.50;;;;;10.51;73.96;103135.28;5021486;28;10759;-67
2022/11/12 10:26:23;;;;;;;;;41.75;36.75;;;;;10.54;74.02;103132.31;5022239;28;10896;-66
2022/11/12 10:29:31;;;;;;;;;35.00;31.00;;;;;10.58;74.32;103130.22;5020910;28;11009;-66
2022/11/12 10:32:17;;;;;;;;;34.00;33.25;;;;;10.59;74.22;103126.53;5024847;28;10790;-67
2022/11/12 10:35:02;;;;;;;;;30.25;26.25;;;;;10.66;74.19;103126.84;5040327;28;10844;-69
2022/11/12 10:37:59;;;;;;;;;42.50;34.75;;;;;10.80;74.59;103132.66;5037126;28;10762;-68
2022/11/12 10:40:44;;;;;;;;;27.50;27.00;;;;;10.83;74.48;103132.38;5036154;28;10745;-68
2022/11/12 10:43:29;;;;;;;;;26.50;25.50;;;;;10.88;74.42;103132.81;5034281;28;10613;-67
2022/11/12 10:46:29;;;;;;;;;30.00;24.00;;;;;10.97;74.07;103128.41;5046461;28;10726;-67
2022/11/12 10:49:14;;;;;;;;;33.75;31.75;;;;;10.99;73.67;103122.91;5049955;28;10505;-70
2022/11/12 10:51:59;;;;;;;;;28.00;25.75;;;;;11.02;73.93;103125.28;5038582;28;10711;-67
2022/11/12 10:54:44;;;;;;;;;28.75;24.75;;;;;11.10;74.11;103122.72;5045144;28;10476;-67
2022/11/12 10:57:35;;;;;;;;;30.25;28.75;;;;;11.16;73.86;103116.78;5037135;28;10624;-69
2022/11/12 11:00:20;;;;;;;;;26.00;25.00;;;;;11.24;74.06;103125.00;5036275;28;10547;-68
2022/11/12 11:03:16;;;;;;;;;25.50;24.00;;;;;11.29;73.32;103116.50;5039616;28;10663;-68
2022/11/12 11:06:09;;;;;;;;;26.00;21.75;;;;;11.35;73.13;103124.03;5035017;28;11345;-68
2022/11/12 11:09:15;;;;;;;;;26.00;24.50;;;;;11.39;73.33;103122.75;5034774;28;10590;-67
2022/11/12 11:12:00;;;;;;;;;27.25;25.25;;;;;11.47;73.17;103116.63;5031878;28;10301;-67
2022/11/12 11:14:45;;;;;;;;;29.75;25.50;;;;;11.48;72.90;103111.09;5035128;28;10389;-68
2022/11/12 11:17:29;;;;;;;;;30.00;26.00;;;;;11.59;72.48;103108.22;5039362;28;10537;-67
2022/11/12 11:20:28;;;;;;;;;28.75;25.50;;;;;11.68;72.37;103114.59;5033238;28;10408;-70
2022/11/12 11:23:35;;;;;;;;;25.75;24.75;;;;;11.75;72.00;103117.53;5041197;28;10422;-68
2022/11/12 11:26:51;;;;;;;;;30.00;22.25;;;;;11.84;71.52;103114.88;5042087;28;10370;-69
2022/11/12 11:30:08;;;;;;;;;21.00;20.00;;;;;11.95;71.37;103115.66;5030682;28;10366;-70
2022/11/12 11:33:21;;;;;;;;;28.50;22.75;;;;;12.02;71.45;103111.38;5033794;28;10141;-68
2022/11/12 11:36:41;;;;;;;;;23.25;23.00;;;;;12.10;71.08;103111.50;5044353;28;10132;-67
2022/11/12 11:39:34;;;;;;;;;25.00;20.25;;;;;12.15;70.98;103108.34;5043512;28;10328;-69
2022/11/12 11:42:46;;;;;;;;;14.75;14.75;;;;;12.25;70.85;103109.16;5041294;28;10070;-70
2022/11/12 11:45:57;;;;;;;;;24.00;21.50;;;;;12.32;70.83;103115.66;5034739;28;10206;-69
2022/11/12 11:49:03;;;;;;;;;27.00;25.00;;;;;12.35;70.59;103116.19;5046114;28;10068;-67
2022/11/12 11:51:59;;;;;;;;;19.00;18.00;;;;;12.42;70.29;103096.69;5035822;28;10324;-68
2022/11/12 11:55:10;;;;;;;;;17.00;16.75;;;;;12.50;70.02;103091.38;5042377;28;9915;-68
2022/11/12 11:58:18;;;;;;;;;19.75;18.75;;;;;12.55;70.21;103086.38;5036020;28;9984;-68
2022/11/12 12:01:29;;;;;;;;;25.50;17.75;;;;;12.65;69.72;103087.16;5038540;28;9965;-68
2022/11/12 12:04:50;;;;;;;;;19.25;18.00;;;;;12.73;69.34;103075.59;5034392;28;9968;-68
2022/11/12 12:07:55;;;;;;;;;14.75;14.75;;;;;12.83;69.20;103079.06;5043941;28;10506;-67
2022/11/12 12:10:49;;;;;;;;;25.50;21.75;;;;;12.86;68.93;103071.50;5033908;28;9750;-67
2022/11/12 12:14:24;;;;;;;;;21.50;17.00;;;;;12.97;68.62;103056.91;5038833;28;9935;-68
2022/11/12 12:17:34;;;;;;;;;15.75;15.25;;;;;13.10;68.41;103061.91;5038736;28;9862;-67
2022/11/12 12:20:29;;;;;;;;;13.25;13.25;;;;;13.18;67.93;103064.66;5036668;28;9639;-67
2022/11/12 12:23:29;;;;;;;;;15.00;14.50;;;;;13.24;67.74;103055.94;5032273;28;9689;-67
2022/11/12 12:26:23;;;;;;;;;17.00;17.00;;;;;13.32;67.62;103056.00;5030179;28;9640;-66
2022/11/12 12:29:33;;;;;;;;;16.75;16.75;;;;;13.42;67.41;103055.06;5037317;28;9680;-66
2022/11/12 12:32:26;;;;;;;;;19.00;17.00;;;;;13.46;67.16;103049.19;5042523;28;9666;-67
2022/11/12 12:35:48;;;;;;;;;19.25;17.75;;;;;13.58;66.64;103042.50;5036196;28;9638;-69
2022/11/12 12:39:03;;;;;;;;;13.00;12.25;;;;;13.66;66.82;103041.69;5040375;28;9602;-67
2022/11/12 12:42:05;;;;;;;;;17.00;15.50;;;;;13.71;65.88;103033.94;5035867;28;9510;-68
2022/11/12 12:45:00;;;;;;;;;11.67;11.67;;;;;13.75;66.38;103034.47;5031437;28;9526;-66
2022/11/12 12:47:47;;;;;;;;;16.00;13.75;;;;;13.78;66.09;103034.16;5046508;28;9449;-72
2022/11/12 12:50:35;;;;;;;;;11.33;11.33;;;;;13.87;66.15;103030.47;5045196;28;9508;-68
2022/11/12 12:53:26;;;;;;;;;8.67;8.67;;;;;13.98;65.82;103023.91;5035905;28;9289;-69
2022/11/12 12:56:14;;;;;;;;;17.25;15.00;;;;;13.97;65.93;103016.78;5029635;28;9378;-68
2022/11/12 12:59:02;;;;;;;;;13.25;12.00;;;;;13.96;65.62;103018.63;5031081;28;9622;-68
2022/11/12 13:02:02;;;;;;;;;13.00;11.00;;;;;13.98;66.06;103010.38;5028854;28;9451;-68
2022/11/12 13:04:56;;;;;;;;;14.25;13.00;;;;;13.99;66.29;103006.66;5037058;28;9391;-66
2022/11/12 13:07:46;;;;;;;;;17.50;15.00;;;;;13.99;65.48;103001.22;5029022;28;9435;-67
2022/11/12 13:10:40;;;;;;;;;17.00;14.25;;;;;13.93;65.63;102999.16;5029640;28;9516;-67
2022/11/12 13:13:29;;;;;;;;;11.25;10.50;;;;;13.89;65.70;102997.78;5034003;28;9530;-67
2022/11/12 13:16:52;;;;;;;;;17.00;13.00;;;;;13.86;66.45;102993.56;5027346;28;9577;-62
2022/11/12 13:19:44;;;;;;;;;17.00;12.75;;;;;13.83;66.17;102981.19;5033806;28;9452;-67
2022/11/12 13:22:48;;;;;;;;;9.00;9.00;;;;;13.78;65.83;102986.25;5050408;28;9519;-66
2022/11/12 13:25:33;;;;;;;;;9.00;9.00;;;;;13.76;66.33;102982.00;5036820;28;9513;-67